createdAt,value
2022-08-16T00:03:13.651Z,18.42
2022-08-16T00:06:21.229Z,18.40
2022-08-16T00:09:27.584Z,18.37
2022-08-16T00:12:34.713Z,18.34
2022-08-16T00:15:51.986Z,18.31
2022-08-16T00:19:01.141Z,18.28
2022-08-16T00:22:12.983Z,18.26
2022-08-16T00:26:33.438Z,18.24
2022-08-16T00:28:49.541Z,18.20
2022-08-16T00:32:05.934Z,18.14
2022-08-16T00:35:16.306Z,18.08
2022-08-16T00:38:40.514Z,18.07
2022-08-16T00:41:50.005Z,18.06
2022-08-16T00:45:00.590Z,18.02
2022-08-16T00:48:30.308Z,17.99
2022-08-16T00:51:38.677Z,17.97
2022-08-16T00:54:44.906Z,17.92
2022-08-16T00:58:00.145Z,17.89
2022-08-16T01:01:08.828Z,17.86
2022-08-16T01:04:29.341Z,17.83
2022-08-16T01:07:50.713Z,17.79
2022-08-16T01:11:00.077Z,17.74
2022-08-16T01:14:13.610Z,17.70
2022-08-16T01:17:21.069Z,17.67
2022-08-16T01:20:35.018Z,17.64
2022-08-16T01:23:57.990Z,17.62
2022-08-16T01:27:15.021Z,17.62
2022-08-16T01:30:26.344Z,17.58
2022-08-16T01:33:33.256Z,17.55
2022-08-16T01:36:39.895Z,17.53
2022-08-16T01:39:47.320Z,17.50
2022-08-16T01:42:55.332Z,17.45
2022-08-16T01:46:37.748Z,17.40
2022-08-16T01:50:40.599Z,17.37
2022-08-16T01:52:59.075Z,17.36
2022-08-16T01:56:07.111Z,17.34
2022-08-16T01:59:16.965Z,17.31
2022-08-16T02:02:27.503Z,17.28
2022-08-16T02:05:34.981Z,17.28
2022-08-16T02:08:41.072Z,17.29
2022-08-16T02:11:52.903Z,17.29
2022-08-16T02:15:00.196Z,17.27
2022-08-16T02:18:08.427Z,17.24
2022-08-16T02:21:31.264Z,17.23
2022-08-16T02:24:41.118Z,17.19
2022-08-16T02:27:51.102Z,17.16
2022-08-16T02:31:00.003Z,17.13
2022-08-16T02:34:08.217Z,17.11
2022-08-16T02:37:20.865Z,17.10
2022-08-16T02:40:28.417Z,17.09
2022-08-16T02:43:37.786Z,17.06
2022-08-16T02:46:49.725Z,17.05
2022-08-16T02:50:52.290Z,17.02
2022-08-16T02:53:23.813Z,16.99
2022-08-16T02:56:32.048Z,16.97
2022-08-16T02:59:41.498Z,16.94
2022-08-16T03:02:48.137Z,16.93
2022-08-16T03:06:02.466Z,16.91
2022-08-16T03:09:29.905Z,16.88
2022-08-16T03:12:55.493Z,16.84
2022-08-16T03:16:02.859Z,16.79
2022-08-16T03:19:09.572Z,16.78
2022-08-16T03:22:18.912Z,16.76
2022-08-16T03:25:41.189Z,16.76
2022-08-16T03:28:51.099Z,16.76
2022-08-16T03:31:58.979Z,16.75
2022-08-16T03:35:06.538Z,16.73
2022-08-16T03:38:34.565Z,16.72
2022-08-16T03:41:50.550Z,16.71
2022-08-16T03:45:03.800Z,16.70
2022-08-16T03:48:15.151Z,16.69
2022-08-16T03:51:25.893Z,16.67
2022-08-16T03:54:31.909Z,16.66
2022-08-16T03:57:42.162Z,16.64
2022-08-16T04:00:59.407Z,16.61
2022-08-16T04:04:06.107Z,16.62
2022-08-16T04:07:15.071Z,16.62
2022-08-16T04:10:35.855Z,16.63
2022-08-16T04:14:00.625Z,16.64
2022-08-16T04:17:09.777Z,16.64
2022-08-16T04:20:29.527Z,16.65
2022-08-16T04:23:40.026Z,16.65
2022-08-16T04:26:46.769Z,16.65
2022-08-16T04:29:53.105Z,16.68
2022-08-16T04:33:09.945Z,16.73
2022-08-16T04:36:20.166Z,16.75
2022-08-16T04:39:46.242Z,16.76
2022-08-16T04:42:54.789Z,16.82
2022-08-16T04:46:03.191Z,16.87
2022-08-16T04:49:09.896Z,16.94
2022-08-16T04:52:32.852Z,16.97
2022-08-16T04:55:41.671Z,17.03
2022-08-16T04:58:48.222Z,17.12
2022-08-16T05:01:58.767Z,17.21
2022-08-16T05:05:06.405Z,17.31
2022-08-16T05:08:29.720Z,17.43
2022-08-16T05:11:36.764Z,17.57
2022-08-16T05:14:46.509Z,17.72
2022-08-16T05:18:07.755Z,17.87
2022-08-16T05:21:23.388Z,17.99
2022-08-16T05:24:29.632Z,18.10
2022-08-16T05:27:43.031Z,18.21
2022-08-16T05:30:51.390Z,18.40
2022-08-16T05:33:57.650Z,18.68
2022-08-16T05:37:04.558Z,18.96
2022-08-16T05:40:14.375Z,19.27
2022-08-16T05:43:21.518Z,19.61
2022-08-16T05:46:30.226Z,19.88
2022-08-16T05:49:39.619Z,20.13
2022-08-16T05:52:46.524Z,20.27
2022-08-16T05:55:53.214Z,20.28
2022-08-16T05:58:59.800Z,20.30
2022-08-16T06:02:06.408Z,20.39
2022-08-16T06:05:14.558Z,20.47
2022-08-16T06:08:31.496Z,20.54
2022-08-16T06:11:39.038Z,20.59
2022-08-16T06:14:49.633Z,20.70
2022-08-16T06:17:59.022Z,20.82
2022-08-16T06:21:06.747Z,20.83
2022-08-16T06:24:52.778Z,20.88
2022-08-16T06:27:41.994Z,20.98
2022-08-16T06:31:03.999Z,21.06
2022-08-16T06:34:55.778Z,21.10
2022-08-16T06:37:37.802Z,21.16
2022-08-16T06:40:47.931Z,21.23
2022-08-16T06:43:56.611Z,21.32
2022-08-16T06:47:03.061Z,21.40
2022-08-16T06:50:10.939Z,21.49
2022-08-16T06:53:29.662Z,21.62
2022-08-16T06:56:36.428Z,21.76
2022-08-16T06:59:52.496Z,21.93
2022-08-16T07:03:04.263Z,22.13
2022-08-16T07:06:31.547Z,22.31
2022-08-16T07:09:37.975Z,22.46
2022-08-16T07:12:47.392Z,22.67
2022-08-16T07:16:15.444Z,22.93
2022-08-16T07:19:21.694Z,23.19
2022-08-16T07:22:52.660Z,23.45
2022-08-16T07:26:05.948Z,23.80
2022-08-16T07:29:12.151Z,24.17
2022-08-16T07:32:20.980Z,24.55
2022-08-16T07:35:36.321Z,25.00
2022-08-16T07:38:43.551Z,25.31
2022-08-16T07:41:51.562Z,25.58
2022-08-16T07:44:59.475Z,25.74
2022-08-16T07:48:11.821Z,25.98
2022-08-16T07:51:18.966Z,26.35
2022-08-16T07:54:32.347Z,26.67
2022-08-16T07:58:00.958Z,26.91
2022-08-16T08:01:12.674Z,26.99
2022-08-16T08:04:21.696Z,27.16
2022-08-16T08:07:29.329Z,27.33
2022-08-16T08:10:38.954Z,27.39
2022-08-16T08:13:45.124Z,27.42
2022-08-16T08:16:51.994Z,27.58
2022-08-16T08:19:59.339Z,27.68
2022-08-16T08:23:06.027Z,27.65
2022-08-16T08:26:17.392Z,27.58
2022-08-16T08:29:36.877Z,27.51
2022-08-16T08:32:58.489Z,27.57
2022-08-16T08:36:11.698Z,27.71
2022-08-16T08:39:28.082Z,27.80
2022-08-16T08:42:34.354Z,27.82
2022-08-16T08:45:47.202Z,27.80
2022-08-16T08:48:59.686Z,27.82
2022-08-16T08:52:09.553Z,27.84
2022-08-16T08:55:17.038Z,27.90
2022-08-16T08:58:23.137Z,27.90
2022-08-16T09:01:36.513Z,27.83
2022-08-16T09:04:43.355Z,27.65
2022-08-16T09:08:01.037Z,27.71
2022-08-16T09:11:08.195Z,27.68
2022-08-16T09:14:24.219Z,27.67
2022-08-16T09:17:49.060Z,27.80
2022-08-16T09:21:01.791Z,27.75
2022-08-16T09:24:09.818Z,27.82
2022-08-16T09:27:16.295Z,27.89
2022-08-16T09:30:34.728Z,27.87
2022-08-16T09:33:52.041Z,27.80
2022-08-16T09:37:00.301Z,27.81
2022-08-16T09:40:31.681Z,27.91
2022-08-16T09:43:59.703Z,28.06
2022-08-16T09:47:03.514Z,28.20
2022-08-16T09:50:22.921Z,28.29
2022-08-16T09:53:30.313Z,28.38
2022-08-16T09:56:39.137Z,28.47
2022-08-16T09:59:45.381Z,28.56
2022-08-16T10:02:52.811Z,28.64
2022-08-16T10:05:59.019Z,28.73
2022-08-16T10:09:06.790Z,28.81
2022-08-16T10:12:32.381Z,28.89
2022-08-16T10:15:41.745Z,28.99
2022-08-16T10:19:00.748Z,29.05
2022-08-16T10:22:12.807Z,29.10
2022-08-16T10:27:19.484Z,29.24
2022-08-16T10:28:45.736Z,29.41
2022-08-16T10:31:56.536Z,29.49
2022-08-16T10:35:03.883Z,29.54
2022-08-16T10:38:10.094Z,29.47
2022-08-16T10:41:33.853Z,29.48
2022-08-16T10:44:40.027Z,29.58
2022-08-16T10:48:00.484Z,29.71
2022-08-16T10:51:10.399Z,29.83
2022-08-16T10:54:29.097Z,29.83
2022-08-16T10:57:36.404Z,29.97
2022-08-16T11:00:46.314Z,30.13
2022-08-16T11:03:54.505Z,30.24
2022-08-16T11:07:08.684Z,30.40
2022-08-16T11:14:10.761Z,30.54
2022-08-16T11:17:18.494Z,30.51
2022-08-16T11:20:48.954Z,30.54
2022-08-16T11:23:58.190Z,30.45
2022-08-16T11:27:23.314Z,30.23
2022-08-16T11:30:39.378Z,30.08
2022-08-16T11:33:53.253Z,30.08
2022-08-16T11:37:00.993Z,30.10
2022-08-16T11:40:09.925Z,30.18
2022-08-16T11:43:20.358Z,30.23
2022-08-16T11:46:45.345Z,30.32
2022-08-16T11:49:53.140Z,30.33
2022-08-16T11:52:59.297Z,30.27
2022-08-16T11:56:09.291Z,30.34
2022-08-16T11:59:16.017Z,30.55
2022-08-16T12:02:31.589Z,30.71
2022-08-16T12:05:40.517Z,30.80
2022-08-16T12:08:48.982Z,30.90
2022-08-16T12:11:55.412Z,30.95
2022-08-16T12:15:01.964Z,31.05
2022-08-16T12:18:09.529Z,31.13
2022-08-16T12:21:15.741Z,31.14
2022-08-16T12:24:26.311Z,31.14
2022-08-16T12:27:33.214Z,31.07
2022-08-16T12:30:43.809Z,30.88
2022-08-16T12:33:50.767Z,30.69
2022-08-16T12:37:05.674Z,30.67
2022-08-16T12:40:23.917Z,30.80
2022-08-16T12:43:31.486Z,30.84
2022-08-16T12:46:37.717Z,30.76
2022-08-16T12:49:45.246Z,30.52
2022-08-16T12:52:53.443Z,30.43
2022-08-16T12:55:59.797Z,30.35
2022-08-16T12:59:16.838Z,30.28
2022-08-16T13:02:33.444Z,30.24
2022-08-16T13:05:47.751Z,30.29
2022-08-16T13:09:02.575Z,30.37
2022-08-16T13:12:21.094Z,30.48
2022-08-16T13:15:30.197Z,30.59
2022-08-16T13:18:38.422Z,30.71
2022-08-16T13:21:45.155Z,30.80
2022-08-16T13:24:56.630Z,30.91
2022-08-16T13:28:06.340Z,30.93
2022-08-16T13:31:12.470Z,30.88
2022-08-16T13:34:22.147Z,30.74
2022-08-16T13:37:28.314Z,30.78
2022-08-16T13:40:34.659Z,30.82
2022-08-16T13:43:42.022Z,30.70
2022-08-16T13:46:48.778Z,30.67
2022-08-16T13:49:57.167Z,30.73
2022-08-16T13:53:04.289Z,30.87
2022-08-16T13:56:11.591Z,30.91
2022-08-16T13:59:31.153Z,30.96
2022-08-16T14:02:41.081Z,30.97
2022-08-16T14:05:47.344Z,30.95
2022-08-16T14:09:06.670Z,30.99
2022-08-16T14:12:22.208Z,30.98
2022-08-16T14:15:28.704Z,30.79
2022-08-16T14:18:38.178Z,30.52
2022-08-16T14:22:13.444Z,30.34
2022-08-16T14:25:18.627Z,30.21
2022-08-16T14:28:25.786Z,30.02
2022-08-16T14:31:35.012Z,29.84
2022-08-16T14:34:45.479Z,29.80
2022-08-16T14:37:57.025Z,29.76
2022-08-16T14:41:03.576Z,29.68
2022-08-16T14:44:13.156Z,29.55
2022-08-16T14:47:20.759Z,29.24
2022-08-16T14:50:28.738Z,28.67
2022-08-16T14:53:35.029Z,28.27
2022-08-16T14:56:46.651Z,27.77
2022-08-16T15:00:05.784Z,27.16
2022-08-16T15:03:12.973Z,26.84
2022-08-16T15:06:20.515Z,26.73
2022-08-16T15:09:26.998Z,26.56
2022-08-16T15:12:36.346Z,26.32
2022-08-16T15:15:44.193Z,26.17
2022-08-16T15:18:58.923Z,26.15
2022-08-16T15:22:05.430Z,26.17
2022-08-16T15:25:14.556Z,26.22
2022-08-16T15:28:30.678Z,26.30
2022-08-16T15:31:41.554Z,26.38
2022-08-16T15:34:50.334Z,26.44
2022-08-16T15:37:56.752Z,26.45
2022-08-16T15:41:03.572Z,26.46
2022-08-16T15:44:13.336Z,26.49
2022-08-16T15:47:19.779Z,26.53
2022-08-16T15:50:25.950Z,26.55
2022-08-16T15:53:32.453Z,26.53
2022-08-16T15:56:51.649Z,26.52
2022-08-16T16:00:04.597Z,26.54
2022-08-16T16:03:15.047Z,26.54
2022-08-16T16:06:21.465Z,26.47
2022-08-16T16:09:37.138Z,26.46
2022-08-16T16:12:51.127Z,26.44
2022-08-16T16:16:03.256Z,26.44
2022-08-16T16:19:09.645Z,26.46
2022-08-16T16:22:17.537Z,26.49
2022-08-16T16:25:24.619Z,26.52
2022-08-16T16:29:06.290Z,26.53
2022-08-16T16:32:00.188Z,26.53
2022-08-16T16:35:07.406Z,26.52
2022-08-16T16:38:14.295Z,26.53
2022-08-16T16:41:25.158Z,26.48
2022-08-16T16:44:36.316Z,26.45
2022-08-16T16:47:44.913Z,26.44
2022-08-16T16:50:51.741Z,26.40
2022-08-16T16:54:00.393Z,26.34
2022-08-16T16:57:26.802Z,26.31
2022-08-16T17:00:38.585Z,26.29
2022-08-16T17:03:45.029Z,26.28
2022-08-16T17:07:00.093Z,26.26
2022-08-16T17:10:06.967Z,26.23
2022-08-16T17:13:14.779Z,26.19
2022-08-16T17:16:21.988Z,26.14
2022-08-16T17:19:41.313Z,26.09
2022-08-16T17:22:54.566Z,26.06
2022-08-16T17:26:01.032Z,25.99
2022-08-16T17:29:11.650Z,25.92
2022-08-16T17:32:33.780Z,25.86
2022-08-16T17:35:55.714Z,25.79
2022-08-16T17:39:02.219Z,25.71
2022-08-16T17:42:15.939Z,25.66
2022-08-16T17:45:22.763Z,25.59
2022-08-16T17:48:31.191Z,25.49
2022-08-16T17:51:37.345Z,25.39
2022-08-16T17:54:45.328Z,25.31
2022-08-16T17:57:52.379Z,25.26
2022-08-16T18:01:01.831Z,25.19
2022-08-16T18:04:10.015Z,25.13
2022-08-16T18:07:16.372Z,25.03
2022-08-16T18:10:32.875Z,24.92
2022-08-16T18:13:43.453Z,24.81
2022-08-16T18:16:49.666Z,24.71
2022-08-16T18:19:55.704Z,24.62
2022-08-16T18:23:12.387Z,24.53
2022-08-16T18:26:21.572Z,24.46
2022-08-16T18:29:27.656Z,24.40
2022-08-16T18:32:34.454Z,24.35
2022-08-16T18:35:40.775Z,24.30
2022-08-16T18:38:46.818Z,24.20
2022-08-16T18:41:52.934Z,24.11
2022-08-16T18:44:59.098Z,24.06
2022-08-16T18:48:05.778Z,24.00
2022-08-16T18:51:18.241Z,23.93
2022-08-16T18:54:28.306Z,23.87
2022-08-16T18:57:34.378Z,23.77
2022-08-16T19:00:56.817Z,23.70
2022-08-16T19:04:03.299Z,23.65
2022-08-16T19:07:09.475Z,23.60
2022-08-16T19:10:15.583Z,23.54
2022-08-16T19:13:24.329Z,23.47
2022-08-16T19:16:30.575Z,23.42
2022-08-16T19:19:36.696Z,23.36
2022-08-16T19:26:24.446Z,23.23
2022-08-16T19:29:32.424Z,23.18
2022-08-16T19:32:39.422Z,23.11
2022-08-16T19:35:45.913Z,23.08
2022-08-16T19:38:52.066Z,23.03
2022-08-16T19:42:00.197Z,22.97
2022-08-16T19:45:08.164Z,22.92
2022-08-16T19:48:14.327Z,22.86
2022-08-16T19:51:20.616Z,22.81
2022-08-16T19:54:26.870Z,22.77
2022-08-16T19:57:33.423Z,22.70
2022-08-16T20:00:43.304Z,22.64
2022-08-16T20:03:49.788Z,22.59
2022-08-16T20:06:56.379Z,22.51
2022-08-16T20:10:03.245Z,22.44
2022-08-16T20:13:14.884Z,22.37
2022-08-16T20:16:20.959Z,22.33
2022-08-16T20:19:28.233Z,22.30
2022-08-16T20:22:52.865Z,22.27
2022-08-16T20:26:01.015Z,22.20
2022-08-16T20:29:07.335Z,22.16
2022-08-16T20:32:16.343Z,22.10
2022-08-16T20:35:25.779Z,22.06
2022-08-16T20:38:31.954Z,22.01
2022-08-16T20:41:38.158Z,21.94
2022-08-16T20:44:45.139Z,21.86
2022-08-16T20:47:51.361Z,21.79
2022-08-16T20:50:59.975Z,21.76
2022-08-16T20:54:06.324Z,21.72
2022-08-16T20:57:13.186Z,21.70
2022-08-16T21:00:20.412Z,21.69
2022-08-16T21:03:26.786Z,21.66
2022-08-16T21:06:32.920Z,21.63
2022-08-16T21:09:39.547Z,21.59
2022-08-16T21:12:53.152Z,21.53
2022-08-16T21:16:00.115Z,21.47
2022-08-16T21:19:06.348Z,21.43
2022-08-16T21:22:20.617Z,21.37
2022-08-16T21:25:27.311Z,21.35
2022-08-16T21:28:41.688Z,21.33
2022-08-16T21:31:49.407Z,21.29
2022-08-16T21:34:55.578Z,21.26
2022-08-16T21:38:28.856Z,21.24
2022-08-16T21:41:28.096Z,21.22
2022-08-16T21:44:38.504Z,21.20
2022-08-16T21:47:45.743Z,21.16
2022-08-16T21:50:51.831Z,21.14
2022-08-16T21:53:58.096Z,21.09
2022-08-16T21:57:10.185Z,21.02
2022-08-16T22:00:19.337Z,20.90
2022-08-16T22:03:25.932Z,20.83
2022-08-16T22:06:32.151Z,20.80
2022-08-16T22:09:38.219Z,20.75
2022-08-16T22:12:44.414Z,20.69
2022-08-16T22:15:51.888Z,20.63
2022-08-16T22:18:58.096Z,20.60
2022-08-16T22:22:04.810Z,20.57
2022-08-16T22:25:11.889Z,20.51
2022-08-16T22:28:18.965Z,20.48
2022-08-16T22:31:25.486Z,20.44
2022-08-16T22:34:31.775Z,20.40
2022-08-16T22:37:37.896Z,20.36
2022-08-16T22:40:44.790Z,20.32
2022-08-16T22:43:50.918Z,20.27
2022-08-16T22:46:57.415Z,20.25
2022-08-16T22:50:03.544Z,20.21
2022-08-16T22:53:10.493Z,20.17
2022-08-16T22:56:17.760Z,20.13
2022-08-16T22:59:25.050Z,20.08
2022-08-16T23:02:31.228Z,20.03
2022-08-16T23:05:40.071Z,19.99
2022-08-16T23:08:46.891Z,19.89
2022-08-16T23:11:53.436Z,19.83
2022-08-16T23:15:02.939Z,19.82
2022-08-16T23:18:10.490Z,19.81
2022-08-16T23:21:19.305Z,19.79
2022-08-16T23:24:25.475Z,19.76
2022-08-16T23:27:31.653Z,19.73
2022-08-16T23:30:40.686Z,19.73
2022-08-16T23:33:47.008Z,19.73
2022-08-16T23:36:53.320Z,19.69
2022-08-16T23:39:59.563Z,19.68
2022-08-16T23:43:07.817Z,19.67
2022-08-16T23:46:17.014Z,19.62
2022-08-16T23:49:56.713Z,19.58
2022-08-16T23:53:05.439Z,19.52
2022-08-16T23:56:14.142Z,19.47
2022-08-16T23:59:20.198Z,19.41
